createdAt,value
2023-04-28T00:01:31.664Z,2.93
2023-04-28T00:03:59.226Z,3.07
2023-04-28T00:06:26.482Z,2.87
2023-04-28T00:08:53.068Z,2.73
2023-04-28T00:11:20.108Z,2.73
2023-04-28T00:13:47.124Z,3.10
2023-04-28T00:16:14.266Z,2.67
2023-04-28T00:18:41.353Z,2.80
2023-04-28T00:21:08.659Z,2.73
2023-04-28T00:23:35.434Z,2.87
2023-04-28T00:26:02.029Z,3.00
2023-04-28T00:30:59.052Z,3.17
2023-04-28T00:33:26.124Z,3.37
2023-04-28T00:35:59.800Z,3.67
2023-04-28T00:38:27.193Z,3.80
2023-04-28T00:40:54.262Z,3.30
2023-04-28T00:43:21.382Z,3.67
2023-04-28T00:45:49.946Z,3.63
2023-04-28T00:48:17.153Z,3.07
2023-04-28T00:50:48.157Z,3.17
2023-04-28T00:53:15.876Z,3.10
2023-04-28T00:55:42.992Z,3.30
2023-04-28T00:58:10.159Z,3.57
2023-04-28T01:00:37.218Z,3.30
2023-04-28T01:03:04.465Z,3.50
2023-04-28T01:05:34.764Z,3.70
2023-04-28T01:08:02.057Z,3.47
2023-04-28T01:10:29.280Z,3.77
2023-04-28T01:12:59.088Z,3.60
2023-04-28T01:15:26.793Z,3.70
2023-04-28T01:17:55.380Z,3.43
2023-04-28T01:20:22.065Z,3.30
2023-04-28T01:22:49.177Z,3.87
2023-04-28T01:25:16.372Z,3.60
2023-04-28T01:27:43.448Z,3.77
2023-04-28T01:30:10.812Z,4.10
2023-04-28T01:32:37.909Z,3.77
2023-04-28T01:35:05.071Z,3.50
2023-04-28T01:37:34.974Z,3.80
2023-04-28T01:40:02.032Z,3.47
2023-04-28T01:42:29.120Z,3.97
2023-04-28T01:44:56.134Z,3.50
2023-04-28T01:47:22.760Z,3.90
2023-04-28T01:49:50.309Z,4.10
2023-04-28T01:52:19.667Z,4.17
2023-04-28T01:54:46.358Z,4.07
2023-04-28T01:57:13.693Z,3.93
2023-04-28T01:59:41.729Z,4.30
2023-04-28T02:02:08.842Z,4.10
2023-04-28T02:04:35.989Z,3.73
2023-04-28T02:07:03.052Z,5.20
2023-04-28T02:09:30.109Z,4.03
2023-04-28T02:11:59.947Z,3.83
2023-04-28T02:14:27.044Z,3.70
2023-04-28T02:16:54.394Z,4.07
2023-04-28T02:19:21.474Z,4.23
2023-04-28T02:21:48.508Z,4.63
2023-04-28T02:24:15.363Z,3.87
2023-04-28T02:26:42.578Z,3.87
2023-04-28T02:29:09.147Z,4.50
2023-04-28T02:31:36.255Z,4.57
2023-04-28T02:34:03.353Z,4.03
2023-04-28T02:36:31.818Z,4.30
2023-04-28T02:38:58.848Z,4.57
2023-04-28T02:41:27.402Z,4.13
2023-04-28T02:43:54.981Z,4.23
2023-04-28T02:46:22.159Z,4.67
2023-04-28T02:48:49.182Z,4.60
2023-04-28T02:51:16.308Z,4.10
2023-04-28T02:53:43.339Z,5.43
2023-04-28T02:56:10.143Z,4.30
2023-04-28T02:58:37.350Z,4.47
2023-04-28T03:01:04.026Z,4.33
2023-04-28T03:03:31.231Z,4.30
2023-04-28T03:05:58.466Z,4.20
2023-04-28T03:08:25.771Z,4.50
2023-04-28T03:10:54.191Z,5.27
2023-04-28T03:13:20.844Z,4.17
2023-04-28T03:15:48.070Z,4.03
2023-04-28T03:18:15.251Z,3.87
2023-04-28T03:20:42.296Z,4.53
2023-04-28T03:23:09.935Z,4.93
2023-04-28T03:25:37.197Z,4.90
2023-04-28T03:28:05.065Z,3.90
2023-04-28T03:30:32.296Z,4.30
2023-04-28T03:32:59.272Z,4.40
2023-04-28T03:35:26.492Z,4.60
2023-04-28T03:37:53.707Z,4.90
2023-04-28T03:40:20.931Z,4.90
2023-04-28T03:43:14.256Z,5.03
2023-04-28T03:45:49.565Z,5.03
2023-04-28T03:48:16.704Z,4.63
2023-04-28T03:50:45.442Z,4.43
2023-04-28T03:53:12.734Z,3.70
2023-04-28T03:55:39.823Z,4.83
2023-04-28T03:58:06.865Z,4.53
2023-04-28T04:00:34.853Z,3.97
2023-04-28T04:03:02.098Z,4.30
2023-04-28T04:05:29.504Z,5.07
2023-04-28T04:07:56.722Z,4.87
2023-04-28T04:10:23.742Z,4.17
2023-04-28T04:12:51.025Z,4.73
2023-04-28T04:15:18.457Z,4.47
2023-04-28T04:17:47.268Z,3.90
2023-04-28T04:20:15.067Z,4.70
2023-04-28T04:22:42.131Z,4.70
2023-04-28T04:25:09.232Z,4.73
2023-04-28T04:27:36.364Z,4.20
2023-04-28T04:30:03.812Z,5.03
2023-04-28T04:32:31.024Z,4.87
2023-04-28T04:34:58.084Z,4.77
2023-04-28T04:37:25.706Z,4.80
2023-04-28T04:39:57.924Z,4.73
2023-04-28T04:42:25.749Z,5.20
2023-04-28T04:45:12.312Z,5.33
2023-04-28T04:47:39.498Z,4.63
2023-04-28T04:50:07.070Z,5.43
2023-04-28T04:52:34.131Z,4.80
2023-04-28T04:55:01.568Z,5.50
2023-04-28T04:57:29.398Z,4.60
2023-04-28T05:00:07.878Z,5.10
2023-04-28T05:02:35.421Z,5.27
2023-04-28T05:05:19.585Z,5.10
2023-04-28T05:07:51.946Z,5.33
2023-04-28T05:10:19.078Z,6.03
2023-04-28T05:12:48.776Z,5.77
2023-04-28T05:15:17.714Z,5.80
2023-04-28T05:17:56.522Z,5.90
2023-04-28T05:20:23.683Z,5.77
2023-04-28T05:22:50.910Z,5.90
2023-04-28T05:25:18.188Z,5.93
2023-04-28T05:27:45.279Z,5.80
2023-04-28T05:30:12.453Z,5.60
2023-04-28T05:32:39.690Z,5.73
2023-04-28T05:35:07.491Z,6.23
2023-04-28T05:37:34.556Z,6.03
2023-04-28T05:40:01.727Z,5.83
2023-04-28T05:42:29.764Z,6.03
2023-04-28T05:44:56.999Z,5.73
2023-04-28T05:47:24.799Z,5.40
2023-04-28T05:49:51.906Z,6.07
2023-04-28T05:52:18.828Z,5.93
2023-04-28T05:54:45.948Z,6.50
2023-04-28T05:57:13.102Z,5.60
2023-04-28T05:59:40.323Z,5.33
2023-04-28T06:02:07.780Z,5.97
2023-04-28T06:04:37.242Z,6.50
2023-04-28T06:07:04.498Z,5.90
2023-04-28T06:09:33.244Z,5.33
2023-04-28T06:12:00.693Z,6.13
2023-04-28T06:14:27.315Z,6.40
2023-04-28T06:16:53.961Z,5.70
2023-04-28T06:19:21.121Z,5.77
2023-04-28T06:21:50.212Z,6.23
2023-04-28T06:24:17.466Z,6.00
2023-04-28T06:26:46.404Z,5.30
2023-04-28T06:29:13.714Z,5.67
2023-04-28T06:31:41.075Z,5.77
2023-04-28T06:34:07.775Z,5.77
2023-04-28T06:36:36.277Z,5.83
2023-04-28T06:39:04.520Z,6.30
2023-04-28T06:41:33.506Z,6.00
2023-04-28T06:44:02.514Z,6.53
2023-04-28T06:46:31.618Z,6.13
2023-04-28T06:48:58.760Z,6.60
2023-04-28T06:51:27.101Z,6.03
2023-04-28T06:53:54.397Z,6.13
2023-04-28T06:56:22.161Z,6.17
2023-04-28T06:58:49.212Z,5.90
2023-04-28T07:01:15.879Z,6.20
2023-04-28T07:03:43.055Z,5.97
2023-04-28T07:06:11.370Z,7.60
2023-04-28T07:08:38.427Z,6.17
2023-04-28T07:11:06.216Z,6.47
2023-04-28T07:13:33.519Z,6.60
2023-04-28T07:16:00.398Z,6.93
2023-04-28T07:18:27.531Z,6.43
2023-04-28T07:20:54.571Z,6.30
2023-04-28T07:23:21.627Z,6.67
2023-04-28T07:25:48.702Z,6.47
2023-04-28T07:28:15.792Z,6.50
2023-04-28T07:30:42.898Z,6.30
2023-04-28T07:33:09.982Z,5.27
2023-04-28T07:35:37.141Z,5.70
2023-04-28T07:38:04.285Z,5.97
2023-04-28T07:40:31.353Z,6.00
2023-04-28T07:42:58.499Z,6.03
2023-04-28T07:45:26.173Z,6.10
2023-04-28T07:47:53.322Z,5.47
2023-04-28T07:50:20.546Z,5.13
2023-04-28T07:52:47.648Z,6.20
2023-04-28T07:55:14.915Z,5.93
2023-04-28T07:57:42.477Z,5.67
2023-04-28T08:00:09.754Z,5.63
2023-04-28T08:02:39.990Z,5.13
2023-04-28T08:05:09.109Z,5.10
2023-04-28T08:07:39.549Z,5.00
2023-04-28T08:10:06.722Z,5.03
2023-04-28T08:12:33.862Z,5.77
2023-04-28T08:15:01.389Z,4.97
2023-04-28T08:17:28.514Z,4.90
2023-04-28T08:19:55.577Z,5.20
2023-04-28T08:22:22.617Z,5.17
2023-04-28T08:24:49.702Z,5.50
2023-04-28T08:27:16.915Z,5.27
2023-04-28T08:29:43.959Z,4.77
2023-04-28T08:32:10.982Z,6.00
2023-04-28T08:34:38.021Z,4.43
2023-04-28T08:37:06.777Z,5.23
2023-04-28T08:39:35.149Z,6.20
2023-04-28T08:42:04.928Z,5.67
2023-04-28T08:44:39.515Z,5.50
2023-04-28T08:47:13.851Z,5.50
2023-04-28T08:49:41.028Z,5.97
2023-04-28T08:52:12.740Z,6.20
2023-04-28T08:54:41.057Z,6.03
2023-04-28T08:57:09.983Z,5.70
2023-04-28T08:59:41.103Z,5.77
2023-04-28T09:02:09.148Z,6.17
2023-04-28T09:04:36.865Z,5.17
2023-04-28T09:07:04.222Z,5.30
2023-04-28T09:09:34.145Z,5.40
2023-04-28T09:12:04.071Z,5.50
2023-04-28T09:14:35.525Z,5.57
2023-04-28T09:17:03.172Z,5.63
2023-04-28T09:19:37.621Z,5.50
2023-04-28T09:22:17.514Z,5.63
2023-04-28T09:24:44.708Z,5.27
2023-04-28T09:27:12.141Z,5.57
2023-04-28T09:29:39.624Z,6.47
2023-04-28T09:32:23.081Z,5.70
2023-04-28T09:34:51.776Z,6.00
2023-04-28T09:37:20.686Z,6.50
2023-04-28T09:39:49.694Z,5.67
2023-04-28T09:42:38.097Z,6.17
2023-04-28T09:45:06.929Z,6.60
2023-04-28T09:47:39.107Z,6.20
2023-04-28T09:50:09.342Z,6.80
2023-04-28T09:52:37.270Z,6.33
2023-04-28T09:55:06.161Z,7.43
2023-04-28T09:57:35.113Z,5.67
2023-04-28T10:00:06.122Z,6.83
2023-04-28T10:02:43.285Z,5.67
2023-04-28T10:05:11.927Z,5.63
2023-04-28T10:07:40.495Z,6.30
2023-04-28T10:10:07.838Z,6.60
2023-04-28T10:12:37.995Z,6.83
2023-04-28T10:15:05.364Z,6.27
2023-04-28T10:17:33.382Z,5.93
2023-04-28T10:20:00.391Z,6.57
2023-04-28T10:22:46.044Z,6.43
2023-04-28T10:25:13.914Z,6.30
2023-04-28T10:27:45.777Z,6.37
2023-04-28T10:30:26.708Z,7.10
2023-04-28T10:33:13.295Z,6.60
2023-04-28T10:35:41.101Z,6.33
2023-04-28T10:38:13.559Z,6.00
2023-04-28T10:40:51.264Z,6.20
2023-04-28T10:43:30.541Z,5.57
2023-04-28T10:45:59.989Z,5.50
2023-04-28T10:48:27.065Z,5.60
2023-04-28T10:51:09.787Z,5.20
2023-04-28T10:53:42.625Z,5.30
2023-04-28T10:56:10.054Z,5.13
2023-04-28T10:58:41.722Z,6.00
2023-04-28T11:01:35.000Z,5.07
2023-04-28T11:04:13.550Z,5.50
2023-04-28T11:07:07.390Z,4.87
2023-04-28T11:09:34.583Z,4.90
2023-04-28T11:12:05.991Z,5.03
2023-04-28T11:14:35.094Z,5.77
2023-04-28T11:17:11.191Z,5.57
2023-04-28T11:19:40.192Z,5.63
2023-04-28T11:22:13.688Z,5.53
2023-04-28T11:24:40.791Z,5.37
2023-04-28T11:27:08.528Z,5.13
2023-04-28T11:29:37.402Z,5.67
2023-04-28T11:32:05.743Z,5.73
2023-04-28T11:34:32.944Z,6.43
2023-04-28T11:37:00.015Z,5.87
2023-04-28T11:39:29.137Z,5.90
2023-04-28T11:41:56.950Z,4.93
2023-04-28T11:44:28.019Z,5.83
2023-04-28T11:46:57.369Z,5.40
2023-04-28T11:49:24.749Z,5.17
2023-04-28T11:51:52.145Z,5.20
2023-04-28T11:54:25.585Z,5.80
2023-04-28T11:56:53.658Z,5.67
2023-04-28T11:59:31.727Z,5.37
2023-04-28T12:02:00.672Z,5.33
2023-04-28T12:04:28.207Z,5.90
2023-04-28T12:07:10.098Z,5.63
2023-04-28T12:09:38.272Z,5.37
2023-04-28T12:12:07.334Z,4.77
2023-04-28T12:14:57.757Z,5.53
2023-04-28T12:17:39.154Z,5.00
2023-04-28T12:20:08.882Z,6.50
2023-04-28T12:22:50.593Z,5.27
2023-04-28T12:25:22.086Z,4.80
2023-04-28T12:28:08.367Z,4.93
2023-04-28T12:30:41.847Z,4.83
2023-04-28T12:33:26.276Z,5.30
2023-04-28T12:35:56.601Z,5.20
2023-04-28T12:38:24.087Z,4.77
2023-04-28T12:40:51.180Z,4.63
2023-04-28T12:43:17.798Z,5.30
2023-04-28T12:45:44.895Z,4.83
2023-04-28T12:48:12.094Z,4.87
2023-04-28T12:50:39.214Z,4.60
2023-04-28T12:53:06.257Z,4.97
2023-04-28T12:55:33.356Z,4.77
2023-04-28T12:58:00.387Z,6.03
2023-04-28T13:00:27.472Z,4.80
2023-04-28T13:02:54.667Z,4.97
2023-04-28T13:05:22.040Z,5.00
2023-04-28T13:07:50.714Z,4.77
2023-04-28T13:10:18.224Z,5.20
2023-04-28T13:12:45.233Z,4.77
2023-04-28T13:15:12.526Z,5.33
2023-04-28T13:17:39.701Z,5.40
2023-04-28T13:20:07.582Z,4.90
2023-04-28T13:22:34.999Z,5.20
2023-04-28T13:25:02.278Z,5.50
2023-04-28T13:27:30.571Z,5.10
2023-04-28T13:30:00.592Z,5.40
2023-04-28T13:32:28.103Z,5.23
2023-04-28T13:34:55.033Z,4.77
2023-04-28T13:37:22.062Z,5.07
2023-04-28T13:39:49.106Z,5.20
2023-04-28T13:42:16.197Z,5.80
2023-04-28T13:44:42.928Z,6.07
2023-04-28T13:47:11.019Z,5.23
2023-04-28T13:49:39.734Z,5.57
2023-04-28T13:52:07.050Z,5.17
2023-04-28T13:54:34.114Z,6.03
2023-04-28T13:57:01.292Z,5.17
2023-04-28T13:59:28.371Z,5.57
2023-04-28T14:01:55.451Z,5.73
2023-04-28T14:04:23.129Z,5.37
2023-04-28T14:06:50.491Z,5.50
2023-04-28T14:09:17.548Z,5.40
2023-04-28T14:11:44.799Z,6.13
2023-04-28T14:14:12.066Z,6.97
2023-04-28T14:16:39.308Z,5.60
2023-04-28T14:19:07.232Z,5.67
2023-04-28T14:21:34.249Z,5.70
2023-04-28T14:24:01.434Z,5.80
2023-04-28T14:26:28.507Z,6.43
2023-04-28T14:28:55.702Z,6.80
2023-04-28T14:31:22.322Z,6.67
2023-04-28T14:33:49.383Z,8.33
2023-04-28T14:36:16.543Z,7.33
2023-04-28T14:38:43.640Z,7.70
2023-04-28T14:41:11.417Z,8.30
2023-04-28T14:43:38.543Z,8.27
2023-04-28T14:46:06.696Z,8.23
2023-04-28T14:48:34.039Z,9.20
2023-04-28T14:51:01.439Z,7.73
2023-04-28T14:53:28.581Z,8.13
2023-04-28T14:56:01.956Z,9.63
2023-04-28T14:58:38.200Z,8.50
2023-04-28T15:01:05.289Z,8.27
2023-04-28T15:03:32.617Z,11.47
2023-04-28T15:06:00.490Z,9.30
2023-04-28T15:08:28.262Z,8.93
2023-04-28T15:10:56.964Z,9.20
2023-04-28T15:13:25.329Z,8.50
2023-04-28T15:15:52.356Z,8.20
2023-04-28T15:18:19.626Z,9.30
2023-04-28T15:20:46.796Z,8.63
2023-04-28T15:23:13.871Z,7.90
2023-04-28T15:25:40.998Z,8.50
2023-04-28T15:28:08.771Z,8.10
2023-04-28T15:30:36.413Z,8.67
2023-04-28T15:33:04.164Z,8.37
2023-04-28T15:35:32.579Z,8.00
2023-04-28T15:38:00.154Z,8.87
2023-04-28T15:40:27.201Z,10.30
2023-04-28T15:42:54.294Z,8.80
2023-04-28T15:45:22.135Z,9.93
2023-04-28T15:47:50.443Z,7.97
2023-04-28T15:50:19.580Z,7.90
2023-04-28T15:52:47.743Z,7.40
2023-04-28T15:55:16.093Z,8.23
2023-04-28T15:57:43.267Z,7.30
2023-04-28T16:00:11.163Z,8.80
2023-04-28T16:02:39.059Z,7.70
2023-04-28T16:05:06.571Z,8.00
2023-04-28T16:07:38.881Z,8.27
2023-04-28T16:10:09.996Z,7.47
2023-04-28T16:12:37.404Z,7.73
2023-04-28T16:15:04.714Z,7.53
2023-04-28T16:17:31.497Z,7.90
2023-04-28T16:19:58.616Z,8.27
2023-04-28T16:22:25.957Z,7.50
2023-04-28T16:24:53.666Z,8.27
2023-04-28T16:27:20.851Z,8.17
2023-04-28T16:29:47.875Z,7.60
2023-04-28T16:32:15.118Z,7.70
2023-04-28T16:34:42.295Z,7.87
2023-04-28T16:37:10.783Z,8.00
2023-04-28T16:39:37.536Z,7.60
2023-04-28T16:42:05.353Z,7.93
2023-04-28T16:44:32.431Z,7.23
2023-04-28T16:46:59.680Z,8.00
2023-04-28T16:49:26.723Z,7.80
2023-04-28T16:51:57.679Z,7.90
2023-04-28T16:54:27.907Z,7.77
2023-04-28T16:56:55.449Z,7.77
2023-04-28T16:59:22.943Z,8.00
2023-04-28T17:01:50.174Z,7.60
2023-04-28T17:04:17.812Z,7.90
2023-04-28T17:06:45.411Z,7.10
2023-04-28T17:09:12.791Z,8.07
2023-04-28T17:11:40.228Z,7.20
2023-04-28T17:14:07.374Z,7.93
2023-04-28T17:16:34.376Z,8.00
2023-04-28T17:19:02.243Z,8.33
2023-04-28T17:21:29.452Z,7.80
2023-04-28T17:23:59.143Z,8.03
2023-04-28T17:26:27.394Z,8.07
2023-04-28T17:28:55.616Z,8.93
2023-04-28T17:31:22.837Z,8.83
2023-04-28T17:33:53.918Z,8.87
2023-04-28T17:36:23.114Z,8.50
2023-04-28T17:38:53.276Z,9.40
2023-04-28T17:41:21.182Z,9.77
2023-04-28T17:43:48.339Z,10.93
2023-04-28T17:46:15.970Z,9.77
2023-04-28T17:48:43.121Z,10.93
2023-04-28T17:51:10.500Z,11.33
2023-04-28T17:53:39.213Z,10.67
2023-04-28T17:56:06.436Z,11.03
2023-04-28T17:58:33.569Z,11.80
2023-04-28T18:01:04.746Z,11.77
2023-04-28T18:03:32.508Z,9.80
2023-04-28T18:05:59.691Z,8.30
2023-04-28T18:08:27.136Z,7.70
2023-04-28T18:10:54.263Z,7.17
2023-04-28T18:13:21.336Z,7.63
2023-04-28T18:15:48.054Z,8.17
2023-04-28T18:18:15.080Z,6.80
2023-04-28T18:20:42.840Z,7.37
2023-04-28T18:23:10.140Z,6.03
2023-04-28T18:25:37.701Z,5.43
2023-04-28T18:28:05.015Z,5.73
2023-04-28T18:30:38.071Z,6.03
2023-04-28T18:33:09.095Z,5.47
2023-04-28T18:35:39.531Z,5.63
2023-04-28T18:38:06.313Z,4.50
2023-04-28T18:40:34.285Z,4.73
2023-04-28T18:43:02.172Z,5.03
2023-04-28T18:45:35.093Z,4.57
2023-04-28T18:48:05.435Z,3.40
2023-04-28T18:50:32.846Z,3.27
2023-04-28T18:53:04.130Z,3.27
2023-04-28T18:55:33.393Z,3.57
2023-04-28T18:58:01.830Z,2.80
2023-04-28T19:00:29.057Z,3.60
2023-04-28T19:02:56.574Z,3.90
2023-04-28T19:05:23.865Z,4.27
2023-04-28T19:07:50.904Z,3.63
2023-04-28T19:10:17.668Z,4.13
2023-04-28T19:12:44.720Z,3.57
2023-04-28T19:15:11.829Z,4.43
2023-04-28T19:17:39.486Z,3.93
2023-04-28T19:20:06.914Z,4.33
2023-04-28T19:22:36.653Z,4.17
2023-04-28T19:25:04.495Z,4.03
2023-04-28T19:27:35.887Z,3.97
2023-04-28T19:30:04.275Z,4.40
2023-04-28T19:32:31.395Z,4.27
2023-04-28T19:34:58.469Z,4.37
2023-04-28T19:37:25.769Z,3.97
2023-04-28T19:39:52.992Z,4.40
2023-04-28T19:42:19.707Z,3.97
2023-04-28T19:44:47.538Z,4.37
2023-04-28T19:47:14.721Z,4.27
2023-04-28T19:49:42.120Z,4.40
2023-04-28T19:52:12.035Z,4.50
2023-04-28T19:54:39.085Z,5.00
2023-04-28T19:57:06.179Z,5.23
2023-04-28T19:59:33.721Z,4.60
2023-04-28T20:02:01.006Z,5.17
2023-04-28T20:04:30.457Z,4.90
2023-04-28T20:06:57.716Z,4.73
2023-04-28T20:09:24.742Z,5.50
2023-04-28T20:11:51.459Z,5.30
2023-04-28T20:14:19.424Z,5.63
2023-04-28T20:16:46.041Z,5.67
2023-04-28T20:19:13.211Z,6.27
2023-04-28T20:21:41.881Z,5.93
2023-04-28T20:24:08.987Z,6.33
2023-04-28T20:26:36.025Z,6.03
2023-04-28T20:29:03.193Z,5.33
2023-04-28T20:31:30.283Z,5.70
2023-04-28T20:33:57.458Z,6.17
2023-04-28T20:36:24.567Z,5.43
2023-04-28T20:38:51.861Z,6.67
2023-04-28T20:41:19.320Z,6.07
2023-04-28T20:43:46.850Z,6.07
2023-04-28T20:46:14.017Z,6.70
2023-04-28T20:48:41.468Z,7.37
2023-04-28T20:51:08.547Z,7.07
2023-04-28T20:53:35.558Z,7.63
2023-04-28T20:56:02.652Z,7.57
2023-04-28T20:58:30.800Z,7.37
2023-04-28T21:00:57.897Z,7.23
2023-04-28T21:03:25.483Z,7.23
2023-04-28T21:05:52.212Z,8.57
2023-04-28T21:08:19.281Z,8.10
2023-04-28T21:10:46.538Z,8.20
2023-04-28T21:13:14.118Z,7.80
2023-04-28T21:15:41.458Z,8.00
2023-04-28T21:18:08.827Z,8.10
2023-04-28T21:20:36.027Z,8.20
2023-04-28T21:23:03.144Z,8.23
2023-04-28T21:25:30.014Z,7.70
2023-04-28T21:27:58.869Z,8.43
2023-04-28T21:30:26.940Z,7.93
2023-04-28T21:32:54.031Z,8.83
2023-04-28T21:35:21.145Z,8.63
2023-04-28T21:37:47.996Z,8.50
2023-04-28T21:40:15.265Z,8.23
2023-04-28T21:42:42.307Z,8.63
2023-04-28T21:45:09.767Z,8.83
2023-04-28T21:47:37.924Z,8.30
2023-04-28T21:50:05.994Z,8.63
2023-04-28T21:52:33.166Z,8.50
2023-04-28T21:55:00.312Z,8.10
2023-04-28T21:57:27.467Z,8.17
2023-04-28T21:59:54.570Z,8.43
2023-04-28T22:02:21.585Z,7.80
2023-04-28T22:04:49.206Z,8.47
2023-04-28T22:07:16.878Z,8.13
2023-04-28T22:09:43.978Z,8.30
2023-04-28T22:12:10.988Z,8.73
2023-04-28T22:14:41.114Z,8.60
2023-04-28T22:17:08.680Z,8.80
2023-04-28T22:19:35.347Z,8.63
2023-04-28T22:22:02.669Z,8.60
2023-04-28T22:24:29.670Z,9.10
2023-04-28T22:26:58.188Z,7.97
2023-04-28T22:29:26.064Z,7.53
2023-04-28T22:31:53.408Z,8.47
2023-04-28T22:34:21.358Z,8.03
2023-04-28T22:36:48.022Z,8.27
2023-04-28T22:39:15.481Z,8.40
2023-04-28T22:41:42.503Z,8.57
2023-04-28T22:44:09.975Z,8.93
2023-04-28T22:46:37.100Z,9.37
2023-04-28T22:49:04.951Z,8.37
2023-04-28T22:51:32.002Z,8.47
2023-04-28T22:53:59.021Z,9.00
2023-04-28T22:56:26.298Z,8.90
2023-04-28T22:58:53.322Z,8.60
2023-04-28T23:01:20.591Z,8.93
2023-04-28T23:03:50.628Z,9.57
2023-04-28T23:06:17.652Z,9.23
2023-04-28T23:08:44.709Z,8.23
2023-04-28T23:11:11.743Z,9.07
2023-04-28T23:13:38.763Z,8.23
2023-04-28T23:16:06.015Z,9.17
2023-04-28T23:18:33.452Z,9.20
2023-04-28T23:21:00.651Z,9.43
2023-04-28T23:23:27.427Z,9.40
2023-04-28T23:25:55.571Z,9.00
2023-04-28T23:28:22.615Z,9.20
2023-04-28T23:30:49.726Z,9.67
2023-04-28T23:33:16.840Z,9.43
2023-04-28T23:35:43.912Z,9.67
2023-04-28T23:38:10.957Z,9.70
2023-04-28T23:40:38.040Z,9.13
2023-04-28T23:43:05.110Z,9.03
2023-04-28T23:45:32.173Z,9.30
2023-04-28T23:47:59.333Z,10.43
2023-04-28T23:50:27.696Z,10.30
2023-04-28T23:52:54.754Z,9.03
2023-04-28T23:55:21.785Z,9.43
2023-04-28T23:57:48.811Z,9.60
